Time,TemperatureF,DewpointF,PressureIn,WindDirection,WindDirectionDegrees,WindSpeedMPH,WindSpeedGustMPH,Humidity,HourlyPrecipIn,Conditions,Clouds,dailyrainin,SoftwareType,DateUTC
2013-03-09 00:09:00,37.5,15.0,30.18,South,171,0.0,0.0,40,0.00,,,0.00,weatherlink.com 1.10,2013-03-09 05:09:00,
2013-03-09 00:24:00,39.5,12.0,30.19,South,170,0.0,1.0,32,0.00,,,0.00,weatherlink.com 1.10,2013-03-09 05:24:00,
2013-03-09 00:39:00,39.7,10.0,30.19,South,170,0.0,0.0,30,0.00,,,0.00,weatherlink.com 1.10,2013-03-09 05:39:00,
2013-03-09 00:54:00,40.1,12.0,30.19,South,170,0.0,0.0,32,0.00,,,0.00,weatherlink.com 1.10,2013-03-09 05:54:00,
2013-03-09 01:09:00,39.8,11.0,30.19,South,170,0.0,0.0,30,0.00,,,0.00,weatherlink.com 1.10,2013-03-09 06:09:00,
2013-03-09 01:24:00,40.7,11.0,30.19,South,170,0.0,1.0,30,0.00,,,0.00,weatherlink.com 1.10,2013-03-09 06:24:00,
2013-03-09 01:39:00,40.0,11.0,30.19,South,170,0.0,0.0,30,0.00,,,0.00,weatherlink.com 1.10,2013-03-09 06:39:00,
2013-03-09 01:54:00,39.2,10.0,30.19,South,170,0.0,0.0,30,0.00,,,0.00,weatherlink.com 1.10,2013-03-09 06:54:00,
2013-03-09 02:09:00,39.4,11.0,30.19,South,171,0.0,2.0,31,0.00,,,0.00,weatherlink.com 1.10,2013-03-09 07:09:00,
2013-03-09 02:25:00,39.8,12.0,30.19,South,171,1.0,1.0,32,0.00,,,0.00,weatherlink.com 1.10,2013-03-09 07:25:00,
2013-03-09 02:40:00,39.3,12.0,30.18,South,170,0.0,0.0,32,0.00,,,0.00,weatherlink.com 1.10,2013-03-09 07:40:00,
2013-03-09 02:55:00,38.5,12.0,30.18,South,171,0.0,0.0,33,0.00,,,0.00,weatherlink.com 1.10,2013-03-09 07:55:00,
2013-03-09 03:10:00,38.6,12.0,30.17,South,171,0.0,0.0,34,0.00,,,0.00,weatherlink.com 1.10,2013-03-09 08:10:00,
2013-03-09 03:25:00,38.5,12.0,30.16,South,171,0.0,0.0,33,0.00,,,0.00,weatherlink.com 1.10,2013-03-09 08:25:00,
2013-03-09 03:40:00,37.8,12.0,30.16,South,171,0.0,0.0,35,0.00,,,0.00,weatherlink.com 1.10,2013-03-09 08:40:00,
2013-03-09 03:55:00,37.7,12.0,30.16,South,171,0.0,0.0,35,0.00,,,0.00,weatherlink.com 1.10,2013-03-09 08:55:00,
2013-03-09 04:10:00,38.2,13.0,30.16,South,170,0.0,2.0,35,0.00,,,0.00,weatherlink.com 1.10,2013-03-09 09:10:00,
2013-03-09 04:25:00,38.0,14.0,30.16,South,170,0.0,1.0,37,0.00,,,0.00,weatherlink.com 1.10,2013-03-09 09:25:00,
2013-03-09 04:40:00,37.7,14.0,30.17,South,171,0.0,0.0,38,0.00,,,0.00,weatherlink.com 1.10,2013-03-09 09:40:00,
2013-03-09 04:55:00,37.2,15.0,30.16,South,170,0.0,0.0,40,0.00,,,0.00,weatherlink.com 1.10,2013-03-09 09:55:00,
2013-03-09 05:10:00,36.3,15.0,30.16,South,170,0.0,0.0,41,0.00,,,0.00,weatherlink.com 1.10,2013-03-09 10:10:00,
2013-03-09 05:25:00,36.3,15.0,30.17,South,171,0.0,0.0,41,0.00,,,0.00,weatherlink.com 1.10,2013-03-09 10:25:00,
2013-03-09 05:40:00,36.5,17.0,30.17,South,171,0.0,1.0,45,0.00,,,0.00,weatherlink.com 1.10,2013-03-09 10:40:00,
2013-03-09 05:55:00,36.6,17.0,30.17,South,170,0.0,0.0,46,0.00,,,0.00,weatherlink.com 1.10,2013-03-09 10:55:00,
2013-03-09 06:10:00,36.5,18.0,30.18,South,170,0.0,1.0,47,0.00,,,0.00,weatherlink.com 1.10,2013-03-09 11:10:00,
2013-03-09 06:25:00,35.7,19.0,30.18,South,171,0.0,0.0,50,0.00,,,0.00,weatherlink.com 1.10,2013-03-09 11:25:00,
2013-03-09 06:40:00,35.9,19.0,30.18,South,170,0.0,1.0,50,0.00,,,0.00,weatherlink.com 1.10,2013-03-09 11:40:00,
2013-03-09 06:55:00,36.0,19.0,30.18,South,171,0.0,0.0,51,0.00,,,0.00,weatherlink.com 1.10,2013-03-09 11:55:00,
2013-03-09 07:10:00,36.2,19.0,30.19,South,170,0.0,0.0,50,0.00,,,0.00,weatherlink.com 1.10,2013-03-09 12:10:00,
2013-03-09 07:25:00,36.9,20.0,30.19,South,170,0.0,0.0,51,0.00,,,0.00,weatherlink.com 1.10,2013-03-09 12:25:00,
2013-03-09 07:40:00,37.3,20.0,30.20,South,170,0.0,0.0,49,0.00,,,0.00,weatherlink.com 1.10,2013-03-09 12:40:00,
2013-03-09 07:55:00,38.3,21.0,30.20,South,170,0.0,2.0,50,0.00,,,0.00,weatherlink.com 1.10,2013-03-09 12:55:00,
2013-03-09 08:10:00,39.3,21.0,30.21,South,171,0.0,3.0,48,0.00,,,0.00,weatherlink.com 1.10,2013-03-09 13:10:00,
2013-03-09 08:25:00,40.6,22.0,30.21,South,170,1.0,4.0,48,0.00,,,0.00,weatherlink.com 1.10,2013-03-09 13:25:00,
2013-03-09 08:40:00,42.5,22.0,30.22,South,171,2.0,4.0,44,0.00,,,0.00,weatherlink.com 1.10,2013-03-09 13:40:00,
2013-03-09 08:55:00,43.0,22.0,30.22,South,170,3.0,5.0,44,0.00,,,0.00,weatherlink.com 1.10,2013-03-09 13:55:00,
2013-03-09 09:10:00,43.5,23.0,30.22,South,172,2.0,5.0,45,0.00,,,0.00,weatherlink.com 1.10,2013-03-09 14:10:00,
2013-03-09 09:25:00,43.0,22.0,30.22,South,172,0.0,5.0,44,0.00,,,0.00,weatherlink.com 1.10,2013-03-09 14:25:00,
2013-03-09 09:40:00,44.3,23.0,30.22,South,172,3.0,5.0,43,0.00,,,0.00,weatherlink.com 1.10,2013-03-09 14:40:00,
2013-03-09 09:55:00,44.9,25.0,30.22,South,176,1.0,6.0,45,0.00,,,0.00,weatherlink.com 1.10,2013-03-09 14:55:00,
2013-03-09 10:10:00,44.8,25.0,30.21,South,176,0.0,5.0,47,0.00,,,0.00,weatherlink.com 1.10,2013-03-09 15:10:00,
2013-03-09 10:25:00,45.4,25.0,30.22,South,176,2.0,4.0,45,0.00,,,0.00,weatherlink.com 1.10,2013-03-09 15:25:00,
2013-03-09 10:40:00,45.3,23.0,30.22,South,176,1.0,5.0,42,0.00,,,0.00,weatherlink.com 1.10,2013-03-09 15:40:00,
2013-03-09 10:55:00,47.4,23.0,30.22,South,176,2.0,5.0,39,0.00,,,0.00,weatherlink.com 1.10,2013-03-09 15:55:00,
2013-03-09 11:10:00,48.2,25.0,30.22,South,176,2.0,6.0,41,0.00,,,0.00,weatherlink.com 1.10,2013-03-09 16:10:00,
2013-03-09 11:26:00,50.5,26.0,30.21,South,176,2.0,5.0,38,0.00,,,0.00,weatherlink.com 1.10,2013-03-09 16:26:00,
2013-03-09 11:41:00,49.3,24.0,30.21,South,181,2.0,8.0,38,0.00,,,0.00,weatherlink.com 1.10,2013-03-09 16:41:00,
2013-03-09 11:56:00,50.7,26.0,30.21,South,181,3.0,6.0,38,0.00,,,0.00,weatherlink.com 1.10,2013-03-09 16:56:00,
2013-03-09 12:11:00,51.3,24.0,30.21,South,181,3.0,6.0,35,0.00,,,0.00,weatherlink.com 1.10,2013-03-09 17:11:00,
2013-03-09 12:26:00,51.2,26.0,30.21,South,181,1.0,7.0,38,0.00,,,0.00,weatherlink.com 1.10,2013-03-09 17:26:00,
2013-03-09 12:41:00,52.4,27.0,30.21,South,181,5.0,8.0,37,0.00,,,0.00,weatherlink.com 1.10,2013-03-09 17:41:00,
2013-03-09 12:56:00,54.5,26.0,30.21,South,179,4.0,5.0,34,0.00,,,0.00,weatherlink.com 1.10,2013-03-09 17:56:00,
2013-03-09 13:11:00,54.1,25.0,30.20,South,181,5.0,7.0,33,0.00,,,0.00,weatherlink.com 1.10,2013-03-09 18:11:00,
2013-03-09 13:26:00,54.0,25.0,30.20,South,181,3.0,8.0,33,0.00,,,0.00,weatherlink.com 1.10,2013-03-09 18:26:00,
2013-03-09 13:41:00,55.9,25.0,30.19,South,179,3.0,6.0,31,0.00,,,0.00,weatherlink.com 1.10,2013-03-09 18:41:00,
2013-03-09 13:56:00,55.7,26.0,30.18,South,180,3.0,7.0,32,0.00,,,0.00,weatherlink.com 1.10,2013-03-09 18:56:00,
2013-03-09 14:11:00,56.2,25.0,30.18,South,180,0.0,6.0,30,0.00,,,0.00,weatherlink.com 1.10,2013-03-09 19:11:00,
2013-03-09 14:26:00,56.9,26.0,30.18,South,179,1.0,5.0,30,0.00,,,0.00,weatherlink.com 1.10,2013-03-09 19:26:00,
2013-03-09 14:41:00,55.7,24.0,30.17,South,178,2.0,5.0,29,0.00,,,0.00,weatherlink.com 1.10,2013-03-09 19:41:00,
2013-03-09 14:56:00,55.3,26.0,30.17,South,177,2.0,6.0,32,0.00,,,0.00,weatherlink.com 1.10,2013-03-09 19:56:00,
2013-03-09 15:11:00,55.5,25.0,30.17,South,177,3.0,5.0,31,0.00,,,0.00,weatherlink.com 1.10,2013-03-09 20:11:00,
2013-03-09 15:26:00,56.0,25.0,30.17,South,177,4.0,5.0,30,0.00,,,0.00,weatherlink.com 1.10,2013-03-09 20:26:00,
2013-03-09 15:41:00,55.5,25.0,30.17,South,177,1.0,4.0,31,0.00,,,0.00,weatherlink.com 1.10,2013-03-09 20:41:00,
2013-03-09 15:56:00,55.4,25.0,30.16,South,178,1.0,4.0,31,0.00,,,0.00,weatherlink.com 1.10,2013-03-09 20:56:00,
2013-03-09 16:12:00,55.1,25.0,30.17,South,177,1.0,3.0,31,0.00,,,0.00,weatherlink.com 1.10,2013-03-09 21:12:00,
2013-03-09 16:26:00,54.4,25.0,30.16,South,177,0.0,4.0,32,0.00,,,0.00,weatherlink.com 1.10,2013-03-09 21:26:00,
2013-03-09 16:41:00,54.5,24.0,30.16,South,177,1.0,3.0,31,0.00,,,0.00,weatherlink.com 1.10,2013-03-09 21:41:00,
2013-03-09 16:56:00,54.1,24.0,30.16,South,178,0.0,3.0,31,0.00,,,0.00,weatherlink.com 1.10,2013-03-09 21:56:00,
2013-03-09 17:11:00,53.6,24.0,30.17,South,178,1.0,3.0,32,0.00,,,0.00,weatherlink.com 1.10,2013-03-09 22:11:00,
2013-03-09 17:26:00,53.1,25.0,30.17,South,177,1.0,2.0,33,0.00,,,0.00,weatherlink.com 1.10,2013-03-09 22:26:00,
2013-03-09 17:41:00,51.8,25.0,30.17,South,177,0.0,1.0,35,0.00,,,0.00,weatherlink.com 1.10,2013-03-09 22:41:00,
2013-03-09 17:56:00,51.8,25.0,30.17,South,178,1.0,1.0,35,0.00,,,0.00,weatherlink.com 1.10,2013-03-09 22:56:00,
2013-03-09 18:11:00,50.4,25.0,30.17,South,177,0.0,1.0,37,0.00,,,0.00,weatherlink.com 1.10,2013-03-09 23:11:00,
2013-03-09 18:26:00,49.1,25.0,30.17,South,178,0.0,1.0,39,0.00,,,0.00,weatherlink.com 1.10,2013-03-09 23:26:00,
2013-03-09 18:41:00,48.4,24.0,30.17,South,177,0.0,2.0,39,0.00,,,0.00,weatherlink.com 1.10,2013-03-09 23:41:00,
2013-03-09 18:56:00,47.9,24.0,30.18,South,177,0.0,2.0,39,0.00,,,0.00,weatherlink.com 1.10,2013-03-09 23:56:00,
2013-03-09 19:11:00,48.1,24.0,30.18,South,177,2.0,4.0,39,0.00,,,0.00,weatherlink.com 1.10,2013-03-10 00:11:00,
2013-03-09 19:26:00,48.0,24.0,30.18,South,174,4.0,5.0,39,0.00,,,0.00,weatherlink.com 1.10,2013-03-10 00:26:00,
2013-03-09 19:41:00,47.7,24.0,30.17,South,173,3.0,6.0,40,0.00,,,0.00,weatherlink.com 1.10,2013-03-10 00:41:00,
2013-03-09 19:56:00,47.9,24.0,30.18,South,173,1.0,5.0,40,0.00,,,0.00,weatherlink.com 1.10,2013-03-10 00:56:00,
2013-03-09 20:11:00,47.9,24.0,30.18,South,173,2.0,5.0,40,0.00,,,0.00,weatherlink.com 1.10,2013-03-10 01:11:00,
2013-03-09 20:26:00,47.7,25.0,30.18,South,173,2.0,4.0,41,0.00,,,0.00,weatherlink.com 1.10,2013-03-10 01:26:00,
2013-03-09 20:41:00,47.5,26.0,30.18,South,173,0.0,1.0,43,0.00,,,0.00,weatherlink.com 1.10,2013-03-10 01:41:00,
2013-03-09 20:56:00,47.3,26.0,30.19,South,173,0.0,3.0,44,0.00,,,0.00,weatherlink.com 1.10,2013-03-10 01:56:00,
2013-03-09 21:11:00,47.4,26.0,30.19,South,173,0.0,2.0,44,0.00,,,0.00,weatherlink.com 1.10,2013-03-10 02:11:00,
2013-03-09 21:26:00,47.4,26.0,30.19,South,174,0.0,2.0,44,0.00,,,0.00,weatherlink.com 1.10,2013-03-10 02:26:00,
2013-03-09 21:41:00,47.4,26.0,30.20,South,174,0.0,1.0,44,0.00,,,0.00,weatherlink.com 1.10,2013-03-10 02:41:00,
2013-03-09 21:56:00,47.3,26.0,30.20,South,174,1.0,1.0,44,0.00,,,0.00,weatherlink.com 1.10,2013-03-10 02:56:00,
2013-03-09 22:11:00,47.3,26.0,30.21,South,174,1.0,2.0,44,0.00,,,0.00,weatherlink.com 1.10,2013-03-10 03:11:00,
2013-03-09 22:26:00,47.5,26.0,30.20,South,174,0.0,3.0,43,0.00,,,0.00,weatherlink.com 1.10,2013-03-10 03:26:00,
2013-03-09 22:41:00,47.4,26.0,30.21,South,174,0.0,2.0,44,0.00,,,0.00,weatherlink.com 1.10,2013-03-10 03:41:00,
2013-03-09 22:56:00,47.4,26.0,30.20,South,174,2.0,3.0,43,0.00,,,0.00,weatherlink.com 1.10,2013-03-10 03:56:00,
2013-03-09 23:11:00,47.1,26.0,30.20,South,174,0.0,1.0,44,0.00,,,0.00,weatherlink.com 1.10,2013-03-10 04:11:00,
2013-03-09 23:26:00,46.9,26.0,30.20,South,174,0.0,0.0,45,0.00,,,0.00,weatherlink.com 1.10,2013-03-10 04:26:00,
2013-03-09 23:41:00,46.7,26.0,30.20,South,174,0.0,0.0,45,0.00,,,0.00,weatherlink.com 1.10,2013-03-10 04:41:00,
2013-03-09 23:56:00,46.4,26.0,30.19,South,174,0.0,0.0,45,0.00,,,0.00,weatherlink.com 1.10,2013-03-10 04:56:00,